sensor_id;sensor_type;location;lat;lon;timestamp;temperature;humidity
13798;DHT22;6970;51.340;3.240;2023-04-15T00:02:16;11.40;99.90
13798;DHT22;6970;51.340;3.240;2023-04-15T00:04:45;11.40;99.90
13798;DHT22;6970;51.340;3.240;2023-04-15T00:07:13;11.40;99.90
13798;DHT22;6970;51.340;3.240;2023-04-15T00:09:43;11.30;99.90
13798;DHT22;6970;51.340;3.240;2023-04-15T00:12:11;11.30;99.90
13798;DHT22;6970;51.340;3.240;2023-04-15T00:14:40;11.30;99.90
13798;DHT22;6970;51.340;3.240;2023-04-15T00:17:11;11.20;99.90
13798;DHT22;6970;51.340;3.240;2023-04-15T00:19:39;11.20;99.90
13798;DHT22;6970;51.340;3.240;2023-04-15T00:22:06;11.20;99.90
13798;DHT22;6970;51.340;3.240;2023-04-15T00:24:35;11.20;99.90
13798;DHT22;6970;51.340;3.240;2023-04-15T00:27:06;11.20;99.90
13798;DHT22;6970;51.340;3.240;2023-04-15T00:29:33;11.20;99.90
13798;DHT22;6970;51.340;3.240;2023-04-15T00:32:03;11.20;99.90
13798;DHT22;6970;51.340;3.240;2023-04-15T00:34:37;11.20;99.90
13798;DHT22;6970;51.340;3.240;2023-04-15T00:37:05;11.20;99.90
13798;DHT22;6970;51.340;3.240;2023-04-15T00:39:35;11.20;99.90
13798;DHT22;6970;51.340;3.240;2023-04-15T00:42:09;11.20;99.90
13798;DHT22;6970;51.340;3.240;2023-04-15T00:44:39;11.10;99.90
13798;DHT22;6970;51.340;3.240;2023-04-15T00:47:07;11.10;99.90
13798;DHT22;6970;51.340;3.240;2023-04-15T00:49:36;11.10;99.90
13798;DHT22;6970;51.340;3.240;2023-04-15T00:52:06;11.00;99.90
13798;DHT22;6970;51.340;3.240;2023-04-15T00:54:34;11.00;99.90
13798;DHT22;6970;51.340;3.240;2023-04-15T00:57:05;10.90;99.90
13798;DHT22;6970;51.340;3.240;2023-04-15T00:59:34;10.90;99.90
13798;DHT22;6970;51.340;3.240;2023-04-15T01:02:02;10.90;99.90
13798;DHT22;6970;51.340;3.240;2023-04-15T01:04:32;10.80;99.90
13798;DHT22;6970;51.340;3.240;2023-04-15T01:07:04;10.70;99.90
13798;DHT22;6970;51.340;3.240;2023-04-15T01:09:34;10.70;99.90
13798;DHT22;6970;51.340;3.240;2023-04-15T01:12:05;10.70;99.90
13798;DHT22;6970;51.340;3.240;2023-04-15T01:14:33;10.60;99.90
13798;DHT22;6970;51.340;3.240;2023-04-15T01:17:06;10.60;99.90
13798;DHT22;6970;51.340;3.240;2023-04-15T01:19:35;10.60;99.90
13798;DHT22;6970;51.340;3.240;2023-04-15T01:22:05;10.60;99.90
13798;DHT22;6970;51.340;3.240;2023-04-15T01:24:35;10.60;99.90
13798;DHT22;6970;51.340;3.240;2023-04-15T01:27:05;10.60;99.90
13798;DHT22;6970;51.340;3.240;2023-04-15T01:29:36;10.60;99.90
13798;DHT22;6970;51.340;3.240;2023-04-15T01:32:10;10.60;99.90
13798;DHT22;6970;51.340;3.240;2023-04-15T01:34:40;10.60;99.90
13798;DHT22;6970;51.340;3.240;2023-04-15T01:37:10;10.60;99.90
13798;DHT22;6970;51.340;3.240;2023-04-15T01:39:40;10.50;99.90
13798;DHT22;6970;51.340;3.240;2023-04-15T01:42:10;10.50;99.90
13798;DHT22;6970;51.340;3.240;2023-04-15T01:44:37;10.50;99.90
13798;DHT22;6970;51.340;3.240;2023-04-15T01:47:05;10.50;99.90
13798;DHT22;6970;51.340;3.240;2023-04-15T01:49:34;10.40;99.90
13798;DHT22;6970;51.340;3.240;2023-04-15T01:52:03;10.40;99.90
13798;DHT22;6970;51.340;3.240;2023-04-15T01:54:31;10.40;99.90
13798;DHT22;6970;51.340;3.240;2023-04-15T01:57:00;10.40;99.90
13798;DHT22;6970;51.340;3.240;2023-04-15T01:59:31;10.40;99.90
13798;DHT22;6970;51.340;3.240;2023-04-15T02:01:58;10.40;99.90
13798;DHT22;6970;51.340;3.240;2023-04-15T02:04:26;10.40;99.90
13798;DHT22;6970;51.340;3.240;2023-04-15T02:06:56;10.40;99.90
13798;DHT22;6970;51.340;3.240;2023-04-15T02:09:26;10.40;99.90
13798;DHT22;6970;51.340;3.240;2023-04-15T02:11:53;10.40;99.90
13798;DHT22;6970;51.340;3.240;2023-04-15T02:14:20;10.40;99.90
13798;DHT22;6970;51.340;3.240;2023-04-15T02:16:48;10.40;99.90
13798;DHT22;6970;51.340;3.240;2023-04-15T02:19:17;10.40;99.90
13798;DHT22;6970;51.340;3.240;2023-04-15T02:21:45;10.40;99.90
13798;DHT22;6970;51.340;3.240;2023-04-15T02:24:15;10.40;99.90
13798;DHT22;6970;51.340;3.240;2023-04-15T02:26:42;10.40;99.90
13798;DHT22;6970;51.340;3.240;2023-04-15T02:29:09;10.40;99.90
13798;DHT22;6970;51.340;3.240;2023-04-15T02:31:38;10.30;99.90
13798;DHT22;6970;51.340;3.240;2023-04-15T02:34:11;10.40;99.90
13798;DHT22;6970;51.340;3.240;2023-04-15T02:36:40;10.30;99.90
13798;DHT22;6970;51.340;3.240;2023-04-15T02:39:08;10.30;99.90
13798;DHT22;6970;51.340;3.240;2023-04-15T02:41:38;10.30;99.90
13798;DHT22;6970;51.340;3.240;2023-04-15T02:44:06;10.30;99.90
13798;DHT22;6970;51.340;3.240;2023-04-15T02:46:38;10.30;99.90
13798;DHT22;6970;51.340;3.240;2023-04-15T02:49:06;10.30;99.90
13798;DHT22;6970;51.340;3.240;2023-04-15T02:51:35;10.30;99.90
13798;DHT22;6970;51.340;3.240;2023-04-15T02:54:02;10.30;99.90
13798;DHT22;6970;51.340;3.240;2023-04-15T02:56:29;10.30;99.90
13798;DHT22;6970;51.340;3.240;2023-04-15T02:58:56;10.30;99.90
13798;DHT22;6970;51.340;3.240;2023-04-15T03:01:26;10.30;99.90
13798;DHT22;6970;51.340;3.240;2023-04-15T03:03:55;10.30;99.90
13798;DHT22;6970;51.340;3.240;2023-04-15T03:06:22;10.20;99.90
13798;DHT22;6970;51.340;3.240;2023-04-15T03:08:51;10.20;99.90
13798;DHT22;6970;51.340;3.240;2023-04-15T03:11:21;10.20;99.90
13798;DHT22;6970;51.340;3.240;2023-04-15T03:13:52;10.20;99.90
13798;DHT22;6970;51.340;3.240;2023-04-15T03:16:20;10.10;99.90
13798;DHT22;6970;51.340;3.240;2023-04-15T03:18:48;10.10;99.90
13798;DHT22;6970;51.340;3.240;2023-04-15T03:21:17;10.10;99.90
13798;DHT22;6970;51.340;3.240;2023-04-15T03:23:51;10.20;99.90
13798;DHT22;6970;51.340;3.240;2023-04-15T03:26:30;10.10;99.90
13798;DHT22;6970;51.340;3.240;2023-04-15T03:28:58;10.10;99.90
13798;DHT22;6970;51.340;3.240;2023-04-15T03:31:28;10.10;99.90
13798;DHT22;6970;51.340;3.240;2023-04-15T03:33:58;10.10;99.90
13798;DHT22;6970;51.340;3.240;2023-04-15T03:36:27;10.10;99.90
13798;DHT22;6970;51.340;3.240;2023-04-15T03:38:54;10.10;99.90
13798;DHT22;6970;51.340;3.240;2023-04-15T03:41:22;10.10;99.90
13798;DHT22;6970;51.340;3.240;2023-04-15T03:43:49;10.10;99.90
13798;DHT22;6970;51.340;3.240;2023-04-15T03:46:22;10.10;99.90
13798;DHT22;6970;51.340;3.240;2023-04-15T03:48:52;10.10;99.90
13798;DHT22;6970;51.340;3.240;2023-04-15T03:51:22;10.20;99.90
13798;DHT22;6970;51.340;3.240;2023-04-15T03:53:49;10.20;99.90
13798;DHT22;6970;51.340;3.240;2023-04-15T03:56:17;10.30;99.90
13798;DHT22;6970;51.340;3.240;2023-04-15T03:58:45;10.30;99.90
13798;DHT22;6970;51.340;3.240;2023-04-15T04:01:12;10.30;99.90
13798;DHT22;6970;51.340;3.240;2023-04-15T04:03:42;10.30;99.90
13798;DHT22;6970;51.340;3.240;2023-04-15T04:06:10;10.30;99.90
13798;DHT22;6970;51.340;3.240;2023-04-15T04:08:38;10.30;99.90
13798;DHT22;6970;51.340;3.240;2023-04-15T04:11:08;10.30;99.90
13798;DHT22;6970;51.340;3.240;2023-04-15T04:13:39;10.30;99.90
13798;DHT22;6970;51.340;3.240;2023-04-15T04:16:06;10.30;99.90
13798;DHT22;6970;51.340;3.240;2023-04-15T04:18:36;10.30;99.90
13798;DHT22;6970;51.340;3.240;2023-04-15T04:21:06;10.30;99.90
13798;DHT22;6970;51.340;3.240;2023-04-15T04:23:37;10.30;99.90
13798;DHT22;6970;51.340;3.240;2023-04-15T04:26:06;10.30;99.90
13798;DHT22;6970;51.340;3.240;2023-04-15T04:28:34;10.30;99.90
13798;DHT22;6970;51.340;3.240;2023-04-15T04:31:02;10.40;99.90
13798;DHT22;6970;51.340;3.240;2023-04-15T04:33:30;10.30;99.90
13798;DHT22;6970;51.340;3.240;2023-04-15T04:35:58;10.30;99.90
13798;DHT22;6970;51.340;3.240;2023-04-15T04:38:27;10.30;99.90
13798;DHT22;6970;51.340;3.240;2023-04-15T04:40:55;10.30;99.90
13798;DHT22;6970;51.340;3.240;2023-04-15T04:43:25;10.30;99.90
13798;DHT22;6970;51.340;3.240;2023-04-15T04:45:52;10.30;99.90
13798;DHT22;6970;51.340;3.240;2023-04-15T04:48:19;10.30;99.90
13798;DHT22;6970;51.340;3.240;2023-04-15T04:50:48;10.20;99.90
13798;DHT22;6970;51.340;3.240;2023-04-15T04:53:16;10.30;99.90
13798;DHT22;6970;51.340;3.240;2023-04-15T04:55:44;10.20;99.90
13798;DHT22;6970;51.340;3.240;2023-04-15T04:58:13;10.30;99.90
13798;DHT22;6970;51.340;3.240;2023-04-15T05:00:41;10.20;99.90
13798;DHT22;6970;51.340;3.240;2023-04-15T05:03:12;10.20;99.90
13798;DHT22;6970;51.340;3.240;2023-04-15T05:05:41;10.30;99.90
13798;DHT22;6970;51.340;3.240;2023-04-15T05:08:08;10.30;99.90
13798;DHT22;6970;51.340;3.240;2023-04-15T05:10:38;10.30;99.90
13798;DHT22;6970;51.340;3.240;2023-04-15T05:13:06;10.30;99.90
13798;DHT22;6970;51.340;3.240;2023-04-15T05:15:36;10.30;99.90
13798;DHT22;6970;51.340;3.240;2023-04-15T05:18:11;10.30;99.90
13798;DHT22;6970;51.340;3.240;2023-04-15T05:20:41;10.30;99.90
13798;DHT22;6970;51.340;3.240;2023-04-15T05:23:12;10.30;99.90
13798;DHT22;6970;51.340;3.240;2023-04-15T05:25:39;10.30;99.90
13798;DHT22;6970;51.340;3.240;2023-04-15T05:28:08;10.30;99.90
13798;DHT22;6970;51.340;3.240;2023-04-15T05:30:38;10.30;99.90
13798;DHT22;6970;51.340;3.240;2023-04-15T05:33:09;10.30;99.90
13798;DHT22;6970;51.340;3.240;2023-04-15T05:35:39;10.30;99.90
13798;DHT22;6970;51.340;3.240;2023-04-15T05:38:10;10.30;99.90
13798;DHT22;6970;51.340;3.240;2023-04-15T05:40:40;10.30;99.90
13798;DHT22;6970;51.340;3.240;2023-04-15T05:43:11;10.30;99.90
13798;DHT22;6970;51.340;3.240;2023-04-15T05:45:39;10.30;99.90
13798;DHT22;6970;51.340;3.240;2023-04-15T05:48:09;10.30;99.90
13798;DHT22;6970;51.340;3.240;2023-04-15T05:50:43;10.30;99.90
13798;DHT22;6970;51.340;3.240;2023-04-15T05:53:10;10.30;99.90
13798;DHT22;6970;51.340;3.240;2023-04-15T05:55:40;10.30;99.90
13798;DHT22;6970;51.340;3.240;2023-04-15T05:58:10;10.30;99.90
13798;DHT22;6970;51.340;3.240;2023-04-15T06:00:41;10.40;99.90
13798;DHT22;6970;51.340;3.240;2023-04-15T06:03:09;10.40;99.90
13798;DHT22;6970;51.340;3.240;2023-04-15T06:05:38;10.40;99.90
13798;DHT22;6970;51.340;3.240;2023-04-15T06:08:06;10.50;99.90
13798;DHT22;6970;51.340;3.240;2023-04-15T06:10:36;10.50;99.90
13798;DHT22;6970;51.340;3.240;2023-04-15T06:13:06;10.50;99.90
13798;DHT22;6970;51.340;3.240;2023-04-15T06:15:36;10.60;99.90
13798;DHT22;6970;51.340;3.240;2023-04-15T06:18:06;10.60;99.90
13798;DHT22;6970;51.340;3.240;2023-04-15T06:20:36;10.60;99.90
13798;DHT22;6970;51.340;3.240;2023-04-15T06:23:07;10.70;99.90
13798;DHT22;6970;51.340;3.240;2023-04-15T06:25:34;10.70;99.90
13798;DHT22;6970;51.340;3.240;2023-04-15T06:28:01;10.80;99.90
13798;DHT22;6970;51.340;3.240;2023-04-15T06:30:31;10.80;99.90
13798;DHT22;6970;51.340;3.240;2023-04-15T06:32:58;10.80;99.90
13798;DHT22;6970;51.340;3.240;2023-04-15T06:35:31;10.90;99.90
13798;DHT22;6970;51.340;3.240;2023-04-15T06:38:02;11.00;99.90
13798;DHT22;6970;51.340;3.240;2023-04-15T06:40:30;11.00;99.90
13798;DHT22;6970;51.340;3.240;2023-04-15T06:43:00;11.10;99.90
13798;DHT22;6970;51.340;3.240;2023-04-15T06:45:30;11.10;99.90
13798;DHT22;6970;51.340;3.240;2023-04-15T06:48:00;11.10;99.90
13798;DHT22;6970;51.340;3.240;2023-04-15T06:50:27;11.10;99.90
13798;DHT22;6970;51.340;3.240;2023-04-15T06:52:55;11.20;99.90
13798;DHT22;6970;51.340;3.240;2023-04-15T06:55:26;11.20;99.90
13798;DHT22;6970;51.340;3.240;2023-04-15T06:57:56;11.30;99.90
13798;DHT22;6970;51.340;3.240;2023-04-15T07:00:23;11.30;99.90
13798;DHT22;6970;51.340;3.240;2023-04-15T07:02:51;11.30;99.90
13798;DHT22;6970;51.340;3.240;2023-04-15T07:05:19;11.40;99.90
13798;DHT22;6970;51.340;3.240;2023-04-15T07:07:50;11.40;99.90
13798;DHT22;6970;51.340;3.240;2023-04-15T07:10:18;11.40;99.90
13798;DHT22;6970;51.340;3.240;2023-04-15T07:12:47;11.40;99.90
13798;DHT22;6970;51.340;3.240;2023-04-15T07:15:18;11.40;99.90
13798;DHT22;6970;51.340;3.240;2023-04-15T07:17:45;11.50;99.90
13798;DHT22;6970;51.340;3.240;2023-04-15T07:20:12;11.50;99.90
13798;DHT22;6970;51.340;3.240;2023-04-15T07:22:39;11.50;99.90
13798;DHT22;6970;51.340;3.240;2023-04-15T07:25:12;11.50;99.90
13798;DHT22;6970;51.340;3.240;2023-04-15T07:27:42;11.60;99.90
13798;DHT22;6970;51.340;3.240;2023-04-15T07:30:16;11.60;99.90
13798;DHT22;6970;51.340;3.240;2023-04-15T07:32:46;11.60;99.90
13798;DHT22;6970;51.340;3.240;2023-04-15T07:35:15;11.60;99.90
13798;DHT22;6970;51.340;3.240;2023-04-15T07:37:45;11.50;99.90
13798;DHT22;6970;51.340;3.240;2023-04-15T07:40:12;11.50;99.90
13798;DHT22;6970;51.340;3.240;2023-04-15T07:42:40;11.50;99.90
13798;DHT22;6970;51.340;3.240;2023-04-15T07:45:08;11.50;99.90
13798;DHT22;6970;51.340;3.240;2023-04-15T07:47:36;11.60;99.90
13798;DHT22;6970;51.340;3.240;2023-04-15T07:50:03;11.70;99.90
13798;DHT22;6970;51.340;3.240;2023-04-15T07:52:30;11.80;99.90
13798;DHT22;6970;51.340;3.240;2023-04-15T07:55:03;11.80;99.90
13798;DHT22;6970;51.340;3.240;2023-04-15T07:57:30;11.90;99.90
13798;DHT22;6970;51.340;3.240;2023-04-15T07:59:59;11.90;99.90
13798;DHT22;6970;51.340;3.240;2023-04-15T08:02:27;12.00;99.90
13798;DHT22;6970;51.340;3.240;2023-04-15T08:04:55;12.00;99.90
13798;DHT22;6970;51.340;3.240;2023-04-15T08:07:29;12.10;99.90
13798;DHT22;6970;51.340;3.240;2023-04-15T08:09:59;12.10;99.90
13798;DHT22;6970;51.340;3.240;2023-04-15T08:12:27;12.20;99.90
13798;DHT22;6970;51.340;3.240;2023-04-15T08:14:57;12.30;99.90
13798;DHT22;6970;51.340;3.240;2023-04-15T08:17:25;12.40;99.90
13798;DHT22;6970;51.340;3.240;2023-04-15T08:19:55;12.50;99.90
13798;DHT22;6970;51.340;3.240;2023-04-15T08:22:26;12.60;99.90
13798;DHT22;6970;51.340;3.240;2023-04-15T08:24:53;12.70;99.90
13798;DHT22;6970;51.340;3.240;2023-04-15T08:27:21;12.80;99.90
13798;DHT22;6970;51.340;3.240;2023-04-15T08:29:48;12.90;99.90
13798;DHT22;6970;51.340;3.240;2023-04-15T08:32:15;13.00;99.90
13798;DHT22;6970;51.340;3.240;2023-04-15T08:34:45;13.10;99.90
13798;DHT22;6970;51.340;3.240;2023-04-15T08:37:16;13.20;99.90
13798;DHT22;6970;51.340;3.240;2023-04-15T08:39:46;13.20;99.90
13798;DHT22;6970;51.340;3.240;2023-04-15T08:42:18;13.30;99.90
13798;DHT22;6970;51.340;3.240;2023-04-15T08:44:52;13.40;99.90
13798;DHT22;6970;51.340;3.240;2023-04-15T08:47:23;13.50;99.90
13798;DHT22;6970;51.340;3.240;2023-04-15T08:49:56;13.60;99.90
13798;DHT22;6970;51.340;3.240;2023-04-15T08:52:26;13.70;99.90
13798;DHT22;6970;51.340;3.240;2023-04-15T08:55:01;13.80;99.90
13798;DHT22;6970;51.340;3.240;2023-04-15T08:57:32;14.00;99.90
13798;DHT22;6970;51.340;3.240;2023-04-15T09:00:02;14.10;99.90
13798;DHT22;6970;51.340;3.240;2023-04-15T09:02:33;14.20;99.90
13798;DHT22;6970;51.340;3.240;2023-04-15T09:05:03;14.40;99.90
13798;DHT22;6970;51.340;3.240;2023-04-15T09:07:40;14.40;99.90
13798;DHT22;6970;51.340;3.240;2023-04-15T09:10:13;14.50;99.90
13798;DHT22;6970;51.340;3.240;2023-04-15T09:12:43;14.60;99.90
13798;DHT22;6970;51.340;3.240;2023-04-15T09:15:11;14.60;99.90
13798;DHT22;6970;51.340;3.240;2023-04-15T09:17:42;14.60;99.90
13798;DHT22;6970;51.340;3.240;2023-04-15T09:20:14;14.50;99.90
13798;DHT22;6970;51.340;3.240;2023-04-15T09:22:45;14.40;99.90
13798;DHT22;6970;51.340;3.240;2023-04-15T09:25:29;14.30;99.90
13798;DHT22;6970;51.340;3.240;2023-04-15T09:28:03;14.20;99.90
13798;DHT22;6970;51.340;3.240;2023-04-15T09:30:32;14.20;99.90
13798;DHT22;6970;51.340;3.240;2023-04-15T09:33:02;14.20;99.90
13798;DHT22;6970;51.340;3.240;2023-04-15T09:35:37;14.40;99.90
13798;DHT22;6970;51.340;3.240;2023-04-15T09:38:08;14.70;99.90
13798;DHT22;6970;51.340;3.240;2023-04-15T09:40:41;14.90;99.90
13798;DHT22;6970;51.340;3.240;2023-04-15T09:43:11;15.10;99.90
13798;DHT22;6970;51.340;3.240;2023-04-15T09:45:49;15.30;99.90
13798;DHT22;6970;51.340;3.240;2023-04-15T09:48:24;15.90;99.90
13798;DHT22;6970;51.340;3.240;2023-04-15T09:50:58;16.60;99.90
13798;DHT22;6970;51.340;3.240;2023-04-15T09:53:28;17.40;99.90
13798;DHT22;6970;51.340;3.240;2023-04-15T09:55:59;18.00;99.90
13798;DHT22;6970;51.340;3.240;2023-04-15T09:58:32;18.60;99.90
13798;DHT22;6970;51.340;3.240;2023-04-15T10:01:03;19.00;99.90
13798;DHT22;6970;51.340;3.240;2023-04-15T10:03:33;19.40;99.90
13798;DHT22;6970;51.340;3.240;2023-04-15T10:06:08;19.70;99.90
13798;DHT22;6970;51.340;3.240;2023-04-15T10:08:35;20.00;99.70
13798;DHT22;6970;51.340;3.240;2023-04-15T10:11:05;20.10;98.80
13798;DHT22;6970;51.340;3.240;2023-04-15T10:13:36;20.30;98.60
13798;DHT22;6970;51.340;3.240;2023-04-15T10:16:10;20.30;98.20
13798;DHT22;6970;51.340;3.240;2023-04-15T10:18:45;20.50;98.00
13798;DHT22;6970;51.340;3.240;2023-04-15T10:21:14;20.60;97.90
13798;DHT22;6970;51.340;3.240;2023-04-15T10:23:45;20.80;97.40
13798;DHT22;6970;51.340;3.240;2023-04-15T10:26:12;20.80;96.90
13798;DHT22;6970;51.340;3.240;2023-04-15T10:28:41;20.90;97.20
13798;DHT22;6970;51.340;3.240;2023-04-15T10:31:11;21.00;97.00
13798;DHT22;6970;51.340;3.240;2023-04-15T10:33:41;21.00;96.70
13798;DHT22;6970;51.340;3.240;2023-04-15T10:36:10;21.20;96.40
13798;DHT22;6970;51.340;3.240;2023-04-15T10:38:41;21.20;96.50
13798;DHT22;6970;51.340;3.240;2023-04-15T10:41:23;21.00;95.80
13798;DHT22;6970;51.340;3.240;2023-04-15T10:44:00;20.80;96.30
13798;DHT22;6970;51.340;3.240;2023-04-15T10:46:44;20.60;96.50
13798;DHT22;6970;51.340;3.240;2023-04-15T10:49:15;20.50;96.60
13798;DHT22;6970;51.340;3.240;2023-04-15T10:51:46;20.40;96.30
13798;DHT22;6970;51.340;3.240;2023-04-15T10:54:31;20.20;96.80
13798;DHT22;6970;51.340;3.240;2023-04-15T10:59:37;20.30;96.80
13798;DHT22;6970;51.340;3.240;2023-04-15T11:02:07;20.20;96.90
13798;DHT22;6970;51.340;3.240;2023-04-15T11:04:58;20.20;96.90
13798;DHT22;6970;51.340;3.240;2023-04-15T11:12:53;20.10;96.90
13798;DHT22;6970;51.340;3.240;2023-04-15T11:18:21;20.30;97.00
13798;DHT22;6970;51.340;3.240;2023-04-15T11:20:59;20.40;96.70
13798;DHT22;6970;51.340;3.240;2023-04-15T11:23:32;20.50;96.70
13798;DHT22;6970;51.340;3.240;2023-04-15T11:26:04;20.50;96.60
13798;DHT22;6970;51.340;3.240;2023-04-15T11:28:35;20.40;96.70
13798;DHT22;6970;51.340;3.240;2023-04-15T11:31:17;20.30;96.70
13798;DHT22;6970;51.340;3.240;2023-04-15T11:33:59;20.20;97.00
13798;DHT22;6970;51.340;3.240;2023-04-15T11:36:34;20.10;97.20
13798;DHT22;6970;51.340;3.240;2023-04-15T11:39:06;20.10;97.10
13798;DHT22;6970;51.340;3.240;2023-04-15T11:41:36;20.10;97.10
13798;DHT22;6970;51.340;3.240;2023-04-15T11:44:15;20.10;97.00
13798;DHT22;6970;51.340;3.240;2023-04-15T11:46:45;19.90;97.00
13798;DHT22;6970;51.340;3.240;2023-04-15T11:49:28;19.80;97.40
13798;DHT22;6970;51.340;3.240;2023-04-15T11:51:59;19.60;97.70
13798;DHT22;6970;51.340;3.240;2023-04-15T11:54:29;19.40;97.90
13798;DHT22;6970;51.340;3.240;2023-04-15T11:56:57;19.20;97.80
13798;DHT22;6970;51.340;3.240;2023-04-15T11:59:24;19.00;98.40
13798;DHT22;6970;51.340;3.240;2023-04-15T12:01:59;18.80;98.70
13798;DHT22;6970;51.340;3.240;2023-04-15T12:04:36;18.70;99.00
13798;DHT22;6970;51.340;3.240;2023-04-15T12:07:05;18.50;99.10
13798;DHT22;6970;51.340;3.240;2023-04-15T12:09:37;18.40;99.20
13798;DHT22;6970;51.340;3.240;2023-04-15T12:12:07;18.20;99.20
13798;DHT22;6970;51.340;3.240;2023-04-15T12:14:34;18.10;99.60
13798;DHT22;6970;51.340;3.240;2023-04-15T12:17:06;18.00;99.70
13798;DHT22;6970;51.340;3.240;2023-04-15T12:19:39;18.20;99.90
13798;DHT22;6970;51.340;3.240;2023-04-15T12:22:12;18.30;99.90
13798;DHT22;6970;51.340;3.240;2023-04-15T12:24:41;18.50;99.70
13798;DHT22;6970;51.340;3.240;2023-04-15T12:27:14;18.60;99.30
13798;DHT22;6970;51.340;3.240;2023-04-15T12:29:45;18.60;99.00
13798;DHT22;6970;51.340;3.240;2023-04-15T12:32:15;18.70;98.90
13798;DHT22;6970;51.340;3.240;2023-04-15T12:34:53;18.60;98.90
13798;DHT22;6970;51.340;3.240;2023-04-15T12:37:23;18.60;98.70
13798;DHT22;6970;51.340;3.240;2023-04-15T12:39:53;18.50;98.80
13798;DHT22;6970;51.340;3.240;2023-04-15T12:42:23;18.50;98.90
13798;DHT22;6970;51.340;3.240;2023-04-15T12:44:50;18.50;98.90
13798;DHT22;6970;51.340;3.240;2023-04-15T12:47:17;18.50;98.30
13798;DHT22;6970;51.340;3.240;2023-04-15T12:49:45;18.40;98.80
13798;DHT22;6970;51.340;3.240;2023-04-15T12:52:13;18.30;98.80
13798;DHT22;6970;51.340;3.240;2023-04-15T12:54:40;18.10;98.80
13798;DHT22;6970;51.340;3.240;2023-04-15T12:57:07;18.00;99.00
13798;DHT22;6970;51.340;3.240;2023-04-15T12:59:36;17.90;99.00
13798;DHT22;6970;51.340;3.240;2023-04-15T13:02:04;18.00;99.40
13798;DHT22;6970;51.340;3.240;2023-04-15T13:04:32;18.00;99.20
13798;DHT22;6970;51.340;3.240;2023-04-15T13:07:01;18.10;99.20
13798;DHT22;6970;51.340;3.240;2023-04-15T13:09:28;18.00;99.00
13798;DHT22;6970;51.340;3.240;2023-04-15T13:11:55;18.00;99.20
13798;DHT22;6970;51.340;3.240;2023-04-15T13:14:23;17.90;99.20
13798;DHT22;6970;51.340;3.240;2023-04-15T13:16:50;17.80;99.50
13798;DHT22;6970;51.340;3.240;2023-04-15T13:19:17;17.80;99.70
13798;DHT22;6970;51.340;3.240;2023-04-15T13:21:45;17.70;99.40
13798;DHT22;6970;51.340;3.240;2023-04-15T13:24:12;17.70;99.50
13798;DHT22;6970;51.340;3.240;2023-04-15T13:26:39;17.70;99.60
13798;DHT22;6970;51.340;3.240;2023-04-15T13:29:06;17.50;99.50
13798;DHT22;6970;51.340;3.240;2023-04-15T13:31:34;17.50;99.40
13798;DHT22;6970;51.340;3.240;2023-04-15T13:34:04;17.30;99.30
13798;DHT22;6970;51.340;3.240;2023-04-15T13:36:32;17.20;99.90
13798;DHT22;6970;51.340;3.240;2023-04-15T13:38:59;17.30;99.90
13798;DHT22;6970;51.340;3.240;2023-04-15T13:41:29;17.30;99.70
13798;DHT22;6970;51.340;3.240;2023-04-15T13:43:59;17.30;99.80
13798;DHT22;6970;51.340;3.240;2023-04-15T13:46:39;17.40;99.60
13798;DHT22;6970;51.340;3.240;2023-04-15T13:49:09;17.40;99.60
13798;DHT22;6970;51.340;3.240;2023-04-15T13:51:37;17.40;99.70
13798;DHT22;6970;51.340;3.240;2023-04-15T13:54:06;17.40;99.70
13798;DHT22;6970;51.340;3.240;2023-04-15T13:56:34;17.40;99.70
13798;DHT22;6970;51.340;3.240;2023-04-15T13:59:03;17.30;99.80
13798;DHT22;6970;51.340;3.240;2023-04-15T14:01:34;17.30;99.90
13798;DHT22;6970;51.340;3.240;2023-04-15T14:04:05;17.20;99.90
13798;DHT22;6970;51.340;3.240;2023-04-15T14:06:35;17.20;99.90
13798;DHT22;6970;51.340;3.240;2023-04-15T14:09:03;17.20;99.90
13798;DHT22;6970;51.340;3.240;2023-04-15T14:11:31;17.10;99.90
13798;DHT22;6970;51.340;3.240;2023-04-15T14:14:01;17.00;99.90
13798;DHT22;6970;51.340;3.240;2023-04-15T14:16:32;16.80;99.90
13798;DHT22;6970;51.340;3.240;2023-04-15T14:19:01;16.70;99.90
13798;DHT22;6970;51.340;3.240;2023-04-15T14:21:28;16.60;99.90
13798;DHT22;6970;51.340;3.240;2023-04-15T14:23:57;16.40;99.90
13798;DHT22;6970;51.340;3.240;2023-04-15T14:26:27;16.30;99.90
13798;DHT22;6970;51.340;3.240;2023-04-15T14:28:57;16.10;99.90
13798;DHT22;6970;51.340;3.240;2023-04-15T14:31:24;16.00;99.90
13798;DHT22;6970;51.340;3.240;2023-04-15T14:33:57;16.00;99.90
13798;DHT22;6970;51.340;3.240;2023-04-15T14:36:24;16.00;99.90
13798;DHT22;6970;51.340;3.240;2023-04-15T14:38:53;16.00;99.90
13798;DHT22;6970;51.340;3.240;2023-04-15T14:41:20;16.00;99.90
13798;DHT22;6970;51.340;3.240;2023-04-15T14:43:48;15.90;99.90
13798;DHT22;6970;51.340;3.240;2023-04-15T14:46:18;15.80;99.90
13798;DHT22;6970;51.340;3.240;2023-04-15T14:48:48;15.80;99.90
13798;DHT22;6970;51.340;3.240;2023-04-15T14:51:17;15.80;99.90
13798;DHT22;6970;51.340;3.240;2023-04-15T14:53:47;15.80;99.90
13798;DHT22;6970;51.340;3.240;2023-04-15T14:56:15;15.70;99.90
13798;DHT22;6970;51.340;3.240;2023-04-15T14:58:43;15.70;99.90
13798;DHT22;6970;51.340;3.240;2023-04-15T15:01:10;15.70;99.90
13798;DHT22;6970;51.340;3.240;2023-04-15T15:03:37;15.60;99.90
13798;DHT22;6970;51.340;3.240;2023-04-15T15:06:11;15.50;99.90
13798;DHT22;6970;51.340;3.240;2023-04-15T15:08:38;15.50;99.90
13798;DHT22;6970;51.340;3.240;2023-04-15T15:11:06;15.50;99.90
13798;DHT22;6970;51.340;3.240;2023-04-15T15:13:35;15.50;99.90
13798;DHT22;6970;51.340;3.240;2023-04-15T15:16:05;15.40;99.90
13798;DHT22;6970;51.340;3.240;2023-04-15T15:18:35;15.30;99.90
13798;DHT22;6970;51.340;3.240;2023-04-15T15:21:03;15.30;99.90
13798;DHT22;6970;51.340;3.240;2023-04-15T15:23:30;15.20;99.90
13798;DHT22;6970;51.340;3.240;2023-04-15T15:25:57;15.10;99.90
13798;DHT22;6970;51.340;3.240;2023-04-15T15:28:26;15.10;99.90
13798;DHT22;6970;51.340;3.240;2023-04-15T15:30:53;15.00;99.90
13798;DHT22;6970;51.340;3.240;2023-04-15T15:33:20;14.90;99.90
13798;DHT22;6970;51.340;3.240;2023-04-15T15:35:47;14.90;99.90
13798;DHT22;6970;51.340;3.240;2023-04-15T15:38:14;14.90;99.90
13798;DHT22;6970;51.340;3.240;2023-04-15T15:40:42;14.90;99.90
13798;DHT22;6970;51.340;3.240;2023-04-15T15:43:12;14.90;99.90
13798;DHT22;6970;51.340;3.240;2023-04-15T15:45:40;14.80;99.90
13798;DHT22;6970;51.340;3.240;2023-04-15T15:48:07;14.80;99.90
13798;DHT22;6970;51.340;3.240;2023-04-15T15:50:34;14.80;99.90
13798;DHT22;6970;51.340;3.240;2023-04-15T15:53:02;14.80;99.90
13798;DHT22;6970;51.340;3.240;2023-04-15T15:55:29;14.70;99.90
13798;DHT22;6970;51.340;3.240;2023-04-15T15:57:56;14.70;99.90
13798;DHT22;6970;51.340;3.240;2023-04-15T16:00:25;14.70;99.90
13798;DHT22;6970;51.340;3.240;2023-04-15T16:02:54;14.60;99.90
13798;DHT22;6970;51.340;3.240;2023-04-15T16:05:33;14.50;99.90
13798;DHT22;6970;51.340;3.240;2023-04-15T16:08:01;14.40;99.90
13798;DHT22;6970;51.340;3.240;2023-04-15T16:10:37;14.30;99.90
13798;DHT22;6970;51.340;3.240;2023-04-15T16:13:07;14.20;99.90